KOGD/OGD METAR and TAF weather

Enter ICAO airport designator
Station Type Date Time Source
KOGD METAR 2019/05/21 21:03 UTC NOAA

KOGD 212103Z 30010KT 10SM -RA BKN014 BKN032 OVC041 06/04 A2962 RMK AO2 P0000 T00560039


Station Type Date Time Source
KOGD Decoded METAR 2019/05/21 21:03 UTC NOAA

OGDEN-HINCKLEY AIRPORT, UT, United States (KOGD) 41-12N 112-01W 1353M
May 21, 2019 - 05:03 PM EDT / 2019.05.21 2103 UTC
Wind: from the WNW (300 degrees) at 12 MPH (10 KT):0
Visibility: 10 mile(s):0
Sky conditions: overcast
Weather: light rain
Precipitation last hour: A trace
Temperature: 42.1 F (5.6 C)
Dew Point: 39.0 F (3.9 C)
Relative Humidity: 88%
Pressure (altimeter): 29.62 in. Hg (1003 hPa)
ob: KOGD 212103Z 30010KT 10SM -RA BKN014 BKN032 OVC041 06/04 A2962 RMK AO2 P0000 T00560039
cycle: 21

Station Type Date Time Source
KOGD TAF 2019/05/21 21:06 UTC NOAA

TAF
AMD KOGD 212102Z 2121/2218 33011KT 6SM -RA BKN025
FM212200 33008KT P6SM -RA BKN030
FM220000 34007KT P6SM VCSH BKN060
FM220200 07005KT P6SM BKN060
FM220800 06006KT P6SM -SHRA BKN040

Example: see airport list